Time;durP1;ratioP1;P1;durP2;ratioP2;P2;SDS_P1;SDS_P2;PMS_P1;PMS_P2;Temp;Humidity;BMP_temperature;BMP_pressure;BME280_temperature;BME280_humidity;BME280_pressure;Samples;Min_cycle;Max_cycle;Signal;HPM_P1;HPM_P2
2022/12/07 00:03:33;;;;;;;3.63;1.38;;;8.00;99.90;;;;;;9675736;30;20034;-61
2022/12/07 00:08:35;;;;;;;3.55;1.20;;;8.00;99.90;;;;;;9681165;30;20030;-60
2022/12/07 00:13:37;;;;;;;2.20;0.82;;;8.00;99.90;;;;;;9682188;30;20038;-61
2022/12/07 00:18:38;;;;;;;2.30;1.08;;;7.90;99.90;;;;;;9683035;30;20091;-61
2022/12/07 00:23:43;;;;;;;3.33;0.90;;;8.00;99.90;;;;;;9682050;30;20034;-60
2022/12/07 00:28:49;;;;;;;2.15;1.15;;;7.90;99.90;;;;;;9681842;30;20169;-61
2022/12/07 00:33:50;;;;;;;3.28;0.98;;;8.00;99.90;;;;;;9683364;30;20049;-61
2022/12/07 00:38:50;;;;;;;4.82;1.25;;;7.90;99.90;;;;;;9678934;30;20563;-61
2022/12/07 00:43:52;;;;;;;4.90;1.10;;;8.00;99.90;;;;;;9681197;30;20547;-62
2022/12/07 00:48:53;;;;;;;3.22;0.85;;;7.90;99.90;;;;;;9682987;30;20050;-61
2022/12/07 00:53:54;;;;;;;4.35;1.83;;;8.00;99.90;;;;;;9679751;30;20054;-61
2022/12/07 00:59:00;;;;;;;2.15;1.02;;;7.90;99.90;;;;;;9678997;30;20061;-61
2022/12/07 01:04:01;;;;;;;2.30;0.80;;;7.90;99.90;;;;;;9680159;30;20493;-61
2022/12/07 01:09:03;;;;;;;4.97;1.35;;;7.90;99.90;;;;;;9680094;30;20092;-61
2022/12/07 01:14:04;;;;;;;7.68;1.10;;;7.80;99.90;;;;;;9678551;30;20046;-61
2022/12/07 01:19:05;;;;;;;8.43;1.13;;;7.90;99.90;;;;;;9678600;30;20250;-61
2022/12/07 01:24:08;;;;;;;4.68;1.15;;;7.90;99.90;;;;;;9679160;30;20398;-60
2022/12/07 01:29:09;;;;;;;4.60;1.00;;;7.90;99.90;;;;;;9678824;30;20505;-60
2022/12/07 01:34:10;;;;;;;6.35;1.00;;;7.90;99.90;;;;;;9680222;30;20046;-61
2022/12/07 01:39:11;;;;;;;3.92;0.90;;;7.90;99.90;;;;;;9663685;30;20425;-61
2022/12/07 01:44:21;;;;;;;7.15;1.48;;;7.80;99.90;;;;;;9677342;30;20117;-61
2022/12/07 01:49:30;;;;;;;10.70;1.40;;;7.80;99.90;;;;;;9680092;30;20030;-61
2022/12/07 01:54:32;;;;;;;5.63;1.20;;;7.80;99.90;;;;;;9678728;30;20305;-61
2022/12/07 01:59:34;;;;;;;4.30;1.15;;;7.80;99.90;;;;;;9678005;30;20030;-61
2022/12/07 02:04:35;;;;;;;5.75;1.20;;;7.80;99.90;;;;;;9678468;30;20038;-61
2022/12/07 02:09:36;;;;;;;5.50;1.33;;;7.80;99.90;;;;;;9677783;30;20038;-61
2022/12/07 02:14:37;;;;;;;5.20;0.80;;;7.80;99.90;;;;;;9678227;30;20139;-60
2022/12/07 02:20:02;;;;;;;3.70;0.93;;;7.80;99.90;;;;;;9678702;30;20050;-61
2022/12/07 02:25:30;;;;;;;3.83;0.90;;;7.80;99.90;;;;;;9676108;30;21229;-61
2022/12/07 02:30:37;;;;;;;4.32;1.10;;;7.80;99.90;;;;;;9678840;30;20459;-61
2022/12/07 02:35:45;;;;;;;5.65;1.15;;;8.20;99.90;;;;;;9675075;30;20042;-60
2022/12/07 02:41:11;;;;;;;4.55;0.88;;;7.80;99.90;;;;;;9675396;30;20236;-61
2022/12/07 02:46:21;;;;;;;4.68;0.95;;;7.80;99.90;;;;;;9676306;30;20034;-61
2022/12/07 02:51:22;;;;;;;6.93;0.70;;;7.80;99.90;;;;;;9674743;30;20250;-61
2022/12/07 02:56:44;;;;;;;5.50;0.85;;;7.70;99.90;;;;;;9675484;30;20048;-61
2022/12/07 03:02:09;;;;;;;4.07;1.02;;;7.70;99.90;;;;;;9675108;30;20046;-60
2022/12/07 03:07:42;;;;;;;4.10;0.77;;;7.80;99.90;;;;;;9660950;30;20041;-61
2022/12/07 03:13:11;;;;;;;2.72;0.50;;;7.80;99.90;;;;;;9675918;30;20426;-61
2022/12/07 03:18:16;;;;;;;5.00;0.80;;;7.80;99.90;;;;;;9676968;30;20057;-61
2022/12/07 03:23:19;;;;;;;2.45;0.40;;;7.70;99.90;;;;;;9675688;30;20567;-61
2022/12/07 03:28:24;;;;;;;2.60;0.70;;;8.10;99.90;;;;;;9675718;30;20492;-61
2022/12/07 03:33:45;;;;;;;5.63;1.10;;;8.00;99.90;;;;;;9674963;30;20034;-60
2022/12/07 03:38:50;;;;;;;1.25;0.60;;;7.70;99.90;;;;;;9672150;30;20030;-61
2022/12/07 03:43:53;;;;;;;2.70;0.73;;;7.70;99.90;;;;;;9679681;30;20034;-61
2022/12/07 03:49:06;;;;;;;3.03;0.55;;;7.70;99.90;;;;;;9680043;30;20022;-61
2022/12/07 03:54:06;;;;;;;4.78;0.73;;;7.70;99.90;;;;;;9678140;30;20077;-61
2022/12/07 03:59:07;;;;;;;3.45;0.60;;;7.70;99.90;;;;;;9682614;30;20125;-60
2022/12/07 04:04:08;;;;;;;5.30;0.50;;;7.70;99.90;;;;;;9682398;30;20038;-60
2022/12/07 04:09:09;;;;;;;1.52;0.50;;;7.70;99.90;;;;;;9682124;30;20033;-61
2022/12/07 04:14:19;;;;;;;5.93;0.93;;;7.70;99.90;;;;;;9681603;30;20040;-61
2022/12/07 04:19:22;;;;;;;2.33;0.80;;;7.70;99.90;;;;;;9683868;30;20046;-61
2022/12/07 04:24:23;;;;;;;3.60;0.52;;;7.70;99.90;;;;;;9681935;30;20041;-60
2022/12/07 04:29:24;;;;;;;3.80;0.50;;;7.70;99.90;;;;;;9681507;30;20112;-61
2022/12/07 04:34:25;;;;;;;1.95;0.43;;;7.60;99.90;;;;;;9683586;30;20408;-61
2022/12/07 04:39:31;;;;;;;2.75;0.35;;;7.60;99.90;;;;;;9680980;30;20038;-62
2022/12/07 04:44:32;;;;;;;2.83;0.40;;;7.60;99.90;;;;;;9679482;30;20034;-61
2022/12/07 04:49:33;;;;;;;0.73;0.38;;;7.60;99.90;;;;;;9680852;30;20026;-61
2022/12/07 04:54:34;;;;;;;3.35;0.80;;;7.60;99.90;;;;;;9676535;30;20054;-61
2022/12/07 04:59:34;;;;;;;3.80;0.40;;;7.60;99.90;;;;;;9675744;30;20046;-61
2022/12/07 05:04:35;;;;;;;1.40;0.40;;;7.60;99.90;;;;;;9679635;30;20026;-62
2022/12/07 05:09:36;;;;;;;1.88;0.45;;;7.60;99.90;;;;;;9671991;30;20576;-60
2022/12/07 05:14:36;;;;;;;1.60;0.40;;;7.70;99.90;;;;;;9679422;30;20108;-62
2022/12/07 05:19:37;;;;;;;1.13;0.40;;;7.50;99.90;;;;;;9677930;30;20049;-60
2022/12/07 05:24:38;;;;;;;1.02;0.50;;;7.50;99.90;;;;;;9679746;30;20061;-61
2022/12/07 05:29:38;;;;;;;4.53;0.50;;;7.50;99.90;;;;;;9680742;30;20050;-60
2022/12/07 05:34:39;;;;;;;3.25;0.25;;;7.50;99.90;;;;;;9679502;30;20099;-61
2022/12/07 05:39:42;;;;;;;1.10;0.25;;;7.50;99.90;;;;;;9678998;30;20030;-60
2022/12/07 05:44:45;;;;;;;2.08;0.35;;;7.50;99.90;;;;;;9675276;30;20034;-61
2022/12/07 05:49:45;;;;;;;2.00;0.38;;;7.50;99.90;;;;;;9675213;30;20042;-61
2022/12/07 05:54:46;;;;;;;3.17;0.45;;;7.50;99.90;;;;;;9673774;30;20065;-61
2022/12/07 05:59:47;;;;;;;2.53;0.35;;;7.60;99.90;;;;;;9672416;30;20049;-61
2022/12/07 06:04:47;;;;;;;3.97;0.63;;;7.50;99.90;;;;;;9676288;30;20401;-60
2022/12/07 06:09:48;;;;;;;3.03;0.60;;;7.50;99.90;;;;;;9677890;30;20107;-61
2022/12/07 06:14:49;;;;;;;1.30;0.30;;;7.50;99.90;;;;;;9677756;30;20053;-61
2022/12/07 06:19:50;;;;;;;2.38;0.47;;;7.40;99.90;;;;;;9679339;30;20073;-61
2022/12/07 06:24:51;;;;;;;0.98;0.30;;;7.40;99.90;;;;;;9674716;30;20180;-63
2022/12/07 06:29:51;;;;;;;1.45;0.40;;;7.40;99.90;;;;;;9679041;30;20026;-63
2022/12/07 06:34:52;;;;;;;1.88;0.40;;;7.60;99.90;;;;;;9674775;30;20514;-61
2022/12/07 06:39:53;;;;;;;1.88;0.40;;;7.40;99.90;;;;;;9674190;30;20041;-60
2022/12/07 06:44:54;;;;;;;3.47;0.63;;;7.40;99.90;;;;;;9673702;30;20061;-61
2022/12/07 06:49:54;;;;;;;5.35;0.43;;;7.50;99.90;;;;;;9675437;30;20038;-61
2022/12/07 06:54:55;;;;;;;2.10;0.40;;;7.60;99.90;;;;;;9672761;30;20622;-61
2022/12/07 06:59:56;;;;;;;1.48;0.57;;;7.50;99.90;;;;;;9673092;30;20088;-61
2022/12/07 07:04:57;;;;;;;1.92;0.30;;;7.40;99.90;;;;;;9667520;30;20069;-60
2022/12/07 07:09:58;;;;;;;2.17;0.43;;;7.40;99.90;;;;;;9672728;30;20042;-61
2022/12/07 07:14:58;;;;;;;2.05;0.60;;;7.40;99.90;;;;;;9674566;30;20054;-61
2022/12/07 07:19:59;;;;;;;2.08;0.52;;;7.40;99.90;;;;;;9675429;30;20054;-62
2022/12/07 07:25:00;;;;;;;1.85;0.30;;;7.40;99.90;;;;;;9676306;30;20582;-63
2022/12/07 07:30:01;;;;;;;1.45;0.40;;;7.40;99.90;;;;;;9676039;30;20042;-62
2022/12/07 07:35:02;;;;;;;0.88;0.30;;;7.40;99.90;;;;;;9677010;30;20397;-65
2022/12/07 07:40:03;;;;;;;3.72;0.43;;;7.30;99.90;;;;;;9675031;30;20038;-62
2022/12/07 07:45:04;;;;;;;1.38;0.40;;;7.30;99.90;;;;;;9675557;30;20041;-62
2022/12/07 07:50:06;;;;;;;2.45;0.55;;;7.30;99.90;;;;;;9676304;30;20055;-62
2022/12/07 07:55:08;;;;;;;1.20;0.50;;;7.30;99.90;;;;;;9616429;30;20622;-63
2022/12/07 08:00:12;;;;;;;1.48;0.70;;;7.30;99.90;;;;;;9611968;30;20137;-63
2022/12/07 08:05:13;;;;;;;3.50;0.70;;;7.00;99.90;;;;;;9601218;30;20042;-63
2022/12/07 08:10:15;;;;;;;4.40;0.88;;;7.30;99.90;;;;;;9654481;30;20033;-64
2022/12/07 08:15:16;;;;;;;2.33;0.47;;;7.40;99.90;;;;;;9600826;30;20225;-64
2022/12/07 08:20:16;;;;;;;2.83;0.68;;;7.30;99.90;;;;;;9591071;30;20053;-64
2022/12/07 08:25:18;;;;;;;3.05;0.50;;;7.30;99.90;;;;;;9597697;30;20633;-64
2022/12/07 08:30:19;;;;;;;1.50;0.93;;;7.30;99.90;;;;;;9605726;30;20038;-64
2022/12/07 08:35:19;;;;;;;3.60;0.80;;;7.30;99.90;;;;;;9610192;30;20420;-64
2022/12/07 08:40:20;;;;;;;1.75;0.47;;;7.30;99.90;;;;;;9607175;30;20041;-63
2022/12/07 08:45:21;;;;;;;1.85;0.40;;;7.30;99.90;;;;;;9603034;30;20038;-63
2022/12/07 08:50:23;;;;;;;0.82;0.47;;;7.40;99.90;;;;;;9606725;30;20619;-63
2022/12/07 08:55:24;;;;;;;2.50;0.82;;;7.30;99.90;;;;;;9604951;30;20060;-62
2022/12/07 09:00:26;;;;;;;2.20;0.60;;;7.40;99.90;;;;;;9608477;30;20125;-62
2022/12/07 09:05:27;;;;;;;1.65;0.65;;;7.40;99.90;;;;;;9612473;30;20668;-63
2022/12/07 09:10:33;;;;;;;1.27;0.60;;;7.40;99.90;;;;;;9599354;30;20034;-63
2022/12/07 09:15:34;;;;;;;1.15;0.50;;;7.40;99.90;;;;;;9563378;30;20379;-62
2022/12/07 09:20:35;;;;;;;3.20;0.63;;;7.50;99.90;;;;;;9608422;30;20508;-62
2022/12/07 09:25:36;;;;;;;1.80;0.60;;;7.80;99.90;;;;;;9608806;30;20061;-63
2022/12/07 09:30:36;;;;;;;2.53;0.80;;;7.50;99.90;;;;;;9605250;30;20867;-63
2022/12/07 09:35:40;;;;;;;6.40;1.13;;;7.50;99.90;;;;;;9601981;30;20606;-66
2022/12/07 09:40:43;;;;;;;3.40;0.98;;;7.80;99.90;;;;;;9594270;30;20396;-63
2022/12/07 09:45:45;;;;;;;4.10;0.80;;;7.30;99.90;;;;;;9593465;30;20042;-63
2022/12/07 09:50:48;;;;;;;4.22;1.25;;;7.80;99.90;;;;;;9605276;30;20096;-63
2022/12/07 09:55:49;;;;;;;3.47;0.85;;;7.80;99.90;;;;;;9604262;30;20049;-64
2022/12/07 10:00:57;;;;;;;4.07;0.90;;;7.80;99.90;;;;;;9608329;30;20053;-64
2022/12/07 10:05:58;;;;;;;5.57;0.95;;;7.80;99.90;;;;;;9607703;30;20396;-64
2022/12/07 10:11:03;;;;;;;3.42;0.85;;;7.80;99.90;;;;;;9606818;30;20050;-64
2022/12/07 10:16:05;;;;;;;4.20;1.00;;;7.80;99.90;;;;;;9607744;30;20519;-64
2022/12/07 10:21:11;;;;;;;4.75;1.00;;;7.80;99.90;;;;;;9609460;30;20497;-64
2022/12/07 10:26:33;;;;;;;3.03;0.75;;;7.90;99.90;;;;;;9604356;30;20151;-63
2022/12/07 10:31:39;;;;;;;2.08;0.80;;;7.90;99.90;;;;;;9608141;30;20125;-63
2022/12/07 10:36:40;;;;;;;1.55;1.30;;;8.00;99.90;;;;;;9607070;30;20049;-64
2022/12/07 10:42:01;;;;;;;2.38;1.08;;;8.10;99.90;;;;;;9602710;30;20034;-64
2022/12/07 10:47:05;;;;;;;2.95;1.05;;;8.20;99.90;;;;;;9601652;30;20552;-64
2022/12/07 10:52:25;;;;;;;4.50;1.10;;;8.20;99.90;;;;;;9599039;30;20559;-62
2022/12/07 10:57:59;;;;;;;2.53;1.00;;;8.10;99.90;;;;;;9601324;30;20046;-63
2022/12/07 11:03:19;;;;;;;12.30;0.98;;;8.20;99.90;;;;;;9605047;30;20050;-63
2022/12/07 11:08:49;;;;;;;6.30;0.82;;;8.10;99.90;;;;;;9601456;30;20233;-63
2022/12/07 11:14:17;;;;;;;2.95;0.80;;;8.10;99.90;;;;;;9600745;30;20354;-62
2022/12/07 11:19:50;;;;;;;4.45;0.68;;;8.10;99.90;;;;;;9604836;30;20528;-62
2022/12/07 11:25:20;;;;;;;6.05;1.23;;;8.10;99.90;;;;;;9602302;30;20054;-61
2022/12/07 11:30:28;;;;;;;3.90;0.80;;;8.20;99.90;;;;;;9586495;30;20266;-66
2022/12/07 11:36:06;;;;;;;3.70;0.98;;;8.20;99.90;;;;;;9602576;30;20054;-62
2022/12/07 11:41:15;;;;;;;4.03;0.80;;;8.10;99.90;;;;;;9592585;30;20045;-62
2022/12/07 11:46:17;;;;;;;2.92;0.85;;;8.10;99.90;;;;;;9602901;30;20349;-63
2022/12/07 11:51:20;;;;;;;4.05;0.93;;;8.20;99.90;;;;;;9605343;30;20038;-63
2022/12/07 11:56:25;;;;;;;4.65;1.30;;;8.40;99.90;;;;;;9598345;30;20523;-63
2022/12/07 12:01:42;;;;;;;4.97;1.30;;;8.30;99.90;;;;;;9599473;30;20038;-65
2022/12/07 12:06:44;;;;;;;5.72;0.82;;;8.30;99.90;;;;;;9606663;30;20468;-62
2022/12/07 12:12:12;;;;;;;1.30;0.70;;;8.40;99.90;;;;;;9599591;30;20038;-62
2022/12/07 12:17:25;;;;;;;4.03;0.97;;;8.30;99.90;;;;;;9603370;30;20089;-63
2022/12/07 12:22:40;;;;;;;3.78;1.20;;;8.20;99.90;;;;;;9595125;30;20112;-64
2022/12/07 12:27:47;;;;;;;3.42;1.27;;;8.20;99.90;;;;;;9589225;30;20457;-63
2022/12/07 12:32:47;;;;;;;4.80;0.98;;;8.20;99.90;;;;;;9597836;30;20046;-61
2022/12/07 12:37:49;;;;;;;6.43;0.90;;;8.30;99.90;;;;;;9592715;30;20487;-60
2022/12/07 12:42:51;;;;;;;9.65;1.52;;;8.40;99.90;;;;;;9578658;30;20035;-61
2022/12/07 12:47:56;;;;;;;4.28;1.00;;;8.40;99.90;;;;;;9591740;30;20033;-61
2022/12/07 12:53:21;;;;;;;4.20;0.82;;;8.30;99.90;;;;;;9594800;30;20041;-67
2022/12/07 12:58:33;;;;;;;3.80;0.93;;;8.30;99.90;;;;;;9597640;30;20046;-61
2022/12/07 13:03:34;;;;;;;4.78;1.45;;;8.30;99.90;;;;;;9609571;30;20038;-62
2022/12/07 13:08:40;;;;;;;2.33;0.80;;;8.30;99.90;;;;;;9601867;30;20043;-62
2022/12/07 13:13:41;;;;;;;3.05;0.98;;;8.20;99.90;;;;;;9604894;30;20260;-61
2022/12/07 13:18:41;;;;;;;3.42;0.93;;;8.30;99.90;;;;;;9610100;30;20070;-60
2022/12/07 13:23:45;;;;;;;3.80;0.90;;;8.30;99.90;;;;;;9609669;30;20046;-63
2022/12/07 13:29:04;;;;;;;2.75;1.00;;;8.30;99.90;;;;;;9600651;30;20386;-63
2022/12/07 13:34:28;;;;;;;5.43;1.17;;;8.30;99.90;;;;;;9606190;30;20054;-63
2022/12/07 13:39:28;;;;;;;1.80;0.95;;;8.30;99.90;;;;;;9609290;30;20045;-64
2022/12/07 13:44:34;;;;;;;2.63;0.88;;;8.30;99.90;;;;;;9601158;30;20180;-63
2022/12/07 13:49:46;;;;;;;1.92;1.10;;;8.30;99.90;;;;;;9596764;30;20059;-65
2022/12/07 13:54:59;;;;;;;3.40;0.90;;;8.30;99.90;;;;;;9593437;30;20152;-64
2022/12/07 14:00:02;;;;;;;6.05;1.02;;;8.30;99.90;;;;;;9591086;30;20445;-63
2022/12/07 14:05:28;;;;;;;1.30;0.80;;;8.30;99.90;;;;;;9600389;30;20925;-66
2022/12/07 14:10:30;;;;;;;2.65;0.90;;;8.40;99.90;;;;;;9585875;30;20424;-66
2022/12/07 14:15:34;;;;;;;4.70;0.88;;;8.20;99.90;;;;;;9594779;30;20685;-65
2022/12/07 14:20:37;;;;;;;1.80;0.50;;;8.30;99.90;;;;;;9594747;30;20728;-66
2022/12/07 14:25:49;;;;;;;3.63;0.98;;;8.20;99.90;;;;;;9592901;30;20063;-66
2022/12/07 14:30:50;;;;;;;1.65;0.70;;;8.20;99.90;;;;;;9594948;30;20077;-66
2022/12/07 14:35:57;;;;;;;2.15;0.80;;;8.60;99.90;;;;;;9596350;30;20057;-65
2022/12/07 14:41:50;;;;;;;5.38;1.10;;;8.20;99.90;;;;;;9601202;30;20050;-65
2022/12/07 14:46:19;;;;;;;1.30;0.80;;;8.20;99.90;;;;;;9603384;30;20610;-66
2022/12/07 14:51:20;;;;;;;3.33;0.90;;;8.20;99.90;;;;;;9608909;25;20113;-66
2022/12/07 14:56:20;;;;;;;1.90;0.68;;;8.20;99.90;;;;;;9564373;30;20492;-65
2022/12/07 15:01:21;;;;;;;0.70;0.65;;;7.60;99.90;;;;;;9568233;30;20033;-65
2022/12/07 15:06:22;;;;;;;4.22;0.85;;;8.40;99.90;;;;;;9572014;30;20046;-66
2022/12/07 15:11:22;;;;;;;2.33;1.17;;;8.20;99.90;;;;;;9547824;30;20076;-66
2022/12/07 15:16:23;;;;;;;3.22;1.27;;;8.20;99.90;;;;;;9562741;30;20050;-65
2022/12/07 15:21:24;;;;;;;2.78;1.17;;;8.20;99.90;;;;;;9570822;30;20046;-67
2022/12/07 15:26:24;;;;;;;2.22;1.15;;;8.20;99.90;;;;;;9564593;30;20051;-68
2022/12/07 15:31:25;;;;;;;5.05;1.30;;;8.20;99.90;;;;;;9541132;30;20031;-63
2022/12/07 15:36:28;;;;;;;8.45;1.67;;;8.20;99.90;;;;;;9548625;30;20452;-62
2022/12/07 15:41:29;;;;;;;4.72;1.10;;;8.60;99.90;;;;;;9553353;30;20050;-62
2022/12/07 15:46:34;;;;;;;4.10;1.25;;;8.60;99.90;;;;;;9559764;30;20162;-61
2022/12/07 15:51:35;;;;;;;3.13;1.05;;;8.50;99.90;;;;;;9571438;30;20058;-61
2022/12/07 15:56:35;;;;;;;6.45;1.50;;;8.30;99.90;;;;;;9572990;30;20058;-63
2022/12/07 16:01:36;;;;;;;5.13;2.30;;;7.90;99.90;;;;;;9716771;25;20058;-61
2022/12/07 16:06:38;;;;;;;6.10;1.73;;;7.70;99.90;;;;;;9741268;25;20061;-61
2022/12/07 16:11:39;;;;;;;8.93;2.35;;;7.80;99.90;;;;;;9709993;30;20124;-61
2022/12/07 16:16:40;;;;;;;3.63;2.03;;;7.80;99.90;;;;;;9706310;30;20052;-62
2022/12/07 16:21:42;;;;;;;3.83;1.98;;;7.90;99.90;;;;;;9712118;30;20653;-61
2022/12/07 16:26:43;;;;;;;3.38;1.65;;;8.00;99.90;;;;;;9705822;30;20053;-61
2022/12/07 16:31:44;;;;;;;4.55;1.45;;;7.90;99.90;;;;;;9714986;30;20029;-60
2022/12/07 16:36:45;;;;;;;5.45;1.65;;;7.90;99.90;;;;;;9712076;30;20400;-60
2022/12/07 16:41:46;;;;;;;6.50;1.70;;;7.90;99.90;;;;;;9712224;30;20026;-60
2022/12/07 16:46:47;;;;;;;4.68;1.90;;;7.90;99.90;;;;;;9713250;30;20546;-61
2022/12/07 16:51:50;;;;;;;3.97;1.90;;;7.80;99.90;;;;;;9706007;30;20033;-61
2022/12/07 16:56:53;;;;;;;3.97;1.80;;;7.80;99.90;;;;;;9707624;30;20053;-62
2022/12/07 17:01:54;;;;;;;3.90;1.85;;;7.80;99.90;;;;;;9709854;30;20022;-62
2022/12/07 17:06:55;;;;;;;5.45;2.13;;;7.70;99.90;;;;;;9710263;30;20061;-62
2022/12/07 17:11:55;;;;;;;4.80;2.10;;;7.70;99.90;;;;;;9709227;30;20116;-62
2022/12/07 17:16:56;;;;;;;4.15;2.15;;;7.70;99.90;;;;;;9710875;30;20099;-62
2022/12/07 17:21:57;;;;;;;7.45;2.40;;;7.70;99.90;;;;;;9709741;30;20033;-62
2022/12/07 17:26:57;;;;;;;4.75;2.13;;;7.70;99.90;;;;;;9712884;30;20030;-62
2022/12/07 17:31:58;;;;;;;5.32;2.20;;;7.70;99.90;;;;;;9715999;30;20044;-61
2022/12/07 17:36:59;;;;;;;3.67;1.83;;;7.70;99.90;;;;;;9712273;30;20041;-62
2022/12/07 17:47:20;;;;;;;3.50;1.90;;;7.70;99.90;;;;;;9694148;30;20129;-61
2022/12/07 17:57:41;;;;;;;4.30;1.58;;;7.70;99.90;;;;;;9682099;30;20068;-62
2022/12/07 18:02:42;;;;;;;4.72;1.55;;;7.70;99.90;;;;;;9694189;30;20034;-62
2022/12/07 18:07:43;;;;;;;2.75;1.65;;;7.80;99.90;;;;;;9695996;30;20042;-62
2022/12/07 18:12:44;;;;;;;5.15;1.98;;;7.90;99.90;;;;;;9700197;30;20102;-63
2022/12/07 18:17:45;;;;;;;4.28;1.77;;;7.90;99.90;;;;;;9708935;30;20042;-62
2022/12/07 18:22:46;;;;;;;3.15;1.73;;;7.90;99.90;;;;;;9702405;30;20026;-61
2022/12/07 18:27:47;;;;;;;4.82;1.88;;;7.80;99.90;;;;;;9694863;30;20038;-61
2022/12/07 18:32:47;;;;;;;3.42;1.75;;;7.80;99.90;;;;;;9696690;30;20032;-60
2022/12/07 18:37:48;;;;;;;3.28;1.60;;;7.80;99.90;;;;;;9695932;30;20132;-61
2022/12/07 18:42:49;;;;;;;3.75;1.75;;;7.70;99.90;;;;;;9705993;30;20085;-60
2022/12/07 18:47:50;;;;;;;4.72;2.03;;;7.70;99.90;;;;;;9706374;30;20579;-62
2022/12/07 18:52:51;;;;;;;2.58;1.40;;;7.80;99.90;;;;;;9708279;30;20033;-60
2022/12/07 18:57:53;;;;;;;3.28;1.73;;;7.80;99.90;;;;;;9697836;30;20050;-61
2022/12/07 19:02:54;;;;;;;6.38;1.80;;;7.80;99.90;;;;;;9694143;30;20063;-60
2022/12/07 19:07:55;;;;;;;3.35;1.30;;;7.80;99.90;;;;;;9701173;30;20419;-60
2022/12/07 19:12:56;;;;;;;3.67;2.00;;;7.70;99.90;;;;;;9702019;30;20034;-60
2022/12/07 19:17:57;;;;;;;3.50;1.88;;;7.70;99.90;;;;;;9703733;30;21248;-62
2022/12/07 19:22:58;;;;;;;3.47;1.70;;;7.70;99.90;;;;;;9702967;30;20029;-60
2022/12/07 19:27:58;;;;;;;5.07;1.92;;;7.70;99.90;;;;;;9699983;30;20041;-61
2022/12/07 19:32:59;;;;;;;5.03;1.67;;;7.70;99.90;;;;;;9699310;30;20038;-60
2022/12/07 19:38:00;;;;;;;6.78;2.17;;;7.70;99.90;;;;;;9700088;30;20026;-60
2022/12/07 19:43:01;;;;;;;5.40;1.60;;;7.70;99.90;;;;;;9703787;30;20033;-60
2022/12/07 19:48:01;;;;;;;4.32;2.10;;;7.60;99.90;;;;;;9690666;30;20030;-61
2022/12/07 19:53:04;;;;;;;4.95;1.88;;;7.70;99.90;;;;;;9702306;30;20058;-61
2022/12/07 19:58:05;;;;;;;3.85;1.50;;;7.60;99.90;;;;;;9701338;30;20112;-61
2022/12/07 20:03:05;;;;;;;3.65;1.60;;;7.60;99.90;;;;;;9699393;30;20064;-61
2022/12/07 20:08:06;;;;;;;4.32;1.30;;;7.60;99.90;;;;;;9706719;30;20079;-61
2022/12/07 20:18:27;;;;;;;4.20;1.45;;;7.60;99.90;;;;;;9696733;30;20038;-63
2022/12/07 20:23:28;;;;;;;3.28;1.50;;;7.60;99.90;;;;;;9697953;30;20042;-60
2022/12/07 20:28:31;;;;;;;3.65;1.60;;;7.60;99.90;;;;;;9708816;30;20552;-61
2022/12/07 20:33:32;;;;;;;3.20;1.45;;;7.60;99.90;;;;;;9707688;30;20045;-60
2022/12/07 20:38:32;;;;;;;3.53;1.48;;;7.50;99.90;;;;;;9708951;30;20504;-61
2022/12/07 20:43:33;;;;;;;2.58;1.38;;;7.50;99.90;;;;;;9708183;30;20590;-61
2022/12/07 20:48:34;;;;;;;2.20;1.30;;;7.50;99.90;;;;;;9708932;30;20040;-61
2022/12/07 20:53:35;;;;;;;1.77;1.10;;;7.50;99.90;;;;;;9708844;30;20045;-61
2022/12/07 20:58:36;;;;;;;1.80;1.17;;;7.60;99.90;;;;;;9708243;30;20120;-61
2022/12/07 21:03:36;;;;;;;3.15;1.45;;;7.50;99.90;;;;;;9693007;30;20065;-61
2022/12/07 21:08:37;;;;;;;3.20;1.30;;;7.50;99.90;;;;;;9705403;30;20114;-61
2022/12/07 21:13:38;;;;;;;3.55;1.40;;;7.80;99.90;;;;;;9706814;30;20053;-62
2022/12/07 21:18:39;;;;;;;1.70;0.98;;;7.50;99.90;;;;;;9703410;30;20040;-61
2022/12/07 21:23:40;;;;;;;3.92;1.30;;;7.50;99.90;;;;;;9696742;30;20045;-61
2022/12/07 21:28:40;;;;;;;3.17;1.08;;;7.50;99.90;;;;;;9693003;30;20115;-60
2022/12/07 21:33:45;;;;;;;3.00;1.10;;;7.50;99.90;;;;;;9703299;30;20054;-60
2022/12/07 21:38:46;;;;;;;2.33;1.10;;;7.50;99.90;;;;;;9704574;30;20029;-60
2022/12/07 21:43:48;;;;;;;1.73;1.10;;;7.40;99.90;;;;;;9706102;30;20096;-60
2022/12/07 21:48:54;;;;;;;1.98;0.77;;;7.40;99.90;;;;;;9706773;30;21277;-61
2022/12/07 21:53:56;;;;;;;2.15;0.95;;;7.50;99.90;;;;;;9703831;30;20175;-60
2022/12/07 21:59:04;;;;;;;2.05;1.42;;;7.40;99.90;;;;;;9704529;30;20030;-60
2022/12/07 22:04:06;;;;;;;2.17;1.00;;;7.40;99.90;;;;;;9701049;30;20081;-60
2022/12/07 22:09:07;;;;;;;2.92;0.90;;;7.40;99.90;;;;;;9703014;30;20119;-61
2022/12/07 22:19:28;;;;;;;2.58;1.10;;;7.40;99.90;;;;;;9703136;30;20037;-60
2022/12/07 22:24:29;;;;;;;2.08;1.10;;;7.40;99.90;;;;;;9698835;30;20058;-61
2022/12/07 22:29:30;;;;;;;2.10;1.13;;;7.40;99.90;;;;;;9692335;30;20046;-61
2022/12/07 22:34:30;;;;;;;2.92;0.95;;;7.40;99.90;;;;;;9696529;30;20065;-60
2022/12/07 22:39:31;;;;;;;3.42;0.90;;;7.40;99.90;;;;;;9697128;30;20057;-61
2022/12/07 22:44:32;;;;;;;2.25;0.85;;;7.40;99.90;;;;;;9709005;30;20053;-61
2022/12/07 22:49:33;;;;;;;4.20;1.02;;;7.30;99.90;;;;;;9708664;30;20034;-61
2022/12/07 22:54:34;;;;;;;2.75;0.88;;;7.30;99.90;;;;;;9711373;30;20049;-61
2022/12/07 22:59:35;;;;;;;2.13;1.08;;;7.30;99.90;;;;;;9709893;30;20038;-61
2022/12/07 23:04:35;;;;;;;2.33;1.00;;;7.30;99.90;;;;;;9709790;30;20147;-61
2022/12/07 23:09:36;;;;;;;3.97;1.83;;;7.30;99.90;;;;;;9709495;30;20081;-61
2022/12/07 23:14:37;;;;;;;1.35;0.75;;;7.30;99.90;;;;;;9709343;30;20038;-61
2022/12/07 23:19:37;;;;;;;5.55;0.80;;;7.20;99.90;;;;;;9709741;30;20041;-61
2022/12/07 23:24:38;;;;;;;4.97;1.10;;;7.40;99.90;;;;;;9709643;30;20121;-64
2022/12/07 23:29:39;;;;;;;1.55;0.73;;;7.20;99.90;;;;;;9710857;30;20034;-60
2022/12/07 23:34:42;;;;;;;1.95;0.70;;;7.20;99.90;;;;;;9708718;30;20467;-61
2022/12/07 23:39:42;;;;;;;1.73;0.55;;;7.20;99.90;;;;;;9709994;30;20034;-61
2022/12/07 23:44:43;;;;;;;3.38;0.70;;;7.20;99.90;;;;;;9709233;30;20029;-60
2022/12/07 23:49:44;;;;;;;1.77;0.63;;;7.50;99.90;;;;;;9710517;30;20500;-61
2022/12/07 23:54:44;;;;;;;2.80;0.70;;;7.20;99.90;;;;;;9709182;30;20133;-61
2022/12/07 23:59:45;;;;;;;1.48;0.70;;;7.10;99.90;;;;;;9714252;30;20041;-61
